.
WxDataArchive / Data Records for 2014-02-19
2014-02-18 February 2014 2014-02-20

Data Records for Wednesday, 19 February 2014

Time	Temp	Chill	HIndex	Humid	Dewpt	 Wind 	HiWind	WindDir	Rain 	Barom 
-----	----	-----	------	-----	-----	------	------	-------	-----	----- 
00:00	40.6	40.6	40.6	63	29.0	0	3	225	0.00	29.697 
00:05	40.8	40.8	40.8	62	28.8	0	2	225	0.00	29.697 
00:10	40.9	40.9	40.9	62	28.9	0	3	225	0.00	29.697 
00:15	41.2	41.2	41.2	62	29.2	0	3	225	0.00	29.689 
00:20	41.3	41.3	41.3	61	28.9	0	2	248	0.00	29.689 
00:25	41.6	41.6	41.6	61	29.2	0	3	248	0.00	29.689 
00:30	41.6	41.6	41.6	61	29.2	1	4	248	0.00	29.681 
00:35	41.8	41.8	41.8	60	28.9	0	3	248	0.00	29.681 
00:40	41.9	41.9	41.9	60	29.0	1	4	248	0.01	29.681 
00:45	41.9	41.9	41.9	60	29.0	0	3	248	0.00	29.678 
00:50	41.9	41.9	41.9	60	29.0	0	3	248	0.00	29.678 
00:55	41.9	41.9	41.9	60	29.0	0	3	248	0.00	29.678 
01:00	41.8	41.8	41.8	60	28.9	0	3	248	0.00	29.676 
01:05	41.8	41.8	41.8	61	29.4	0	2	248	0.00	29.676 
01:10	41.6	41.6	41.6	61	29.2	0	2	248	0.00	29.676 
01:15	41.6	41.6	41.6	61	29.2	0	4	248	0.00	29.666 
01:20	41.6	41.6	41.6	61	29.2	1	4	248	0.00	29.666 
01:25	41.6	41.6	41.6	61	29.2	0	1	248	0.00	29.666 
01:30	41.6	41.6	41.6	62	29.6	0	4	248	0.00	29.664 
01:35	41.6	41.6	41.6	62	29.6	0	2	248	0.00	29.664 
01:40	41.6	41.6	41.6	62	29.6	0	4	248	0.01	29.664 
01:45	41.5	41.5	41.5	62	29.5	0	2	248	0.00	29.661 
01:50	41.5	41.5	41.5	62	29.5	0	2	248	0.00	29.661 
01:55	41.3	41.3	41.3	62	29.3	0	3	248	0.00	29.661 
02:00	41.5	41.5	41.5	62	29.5	0	2	248	0.00	29.661 
02:05	41.3	41.3	41.3	63	29.7	0	1	248	0.00	29.661 
02:10	41.2	41.2	41.2	63	29.6	0	3	248	0.00	29.661 
02:15	41.2	41.2	41.2	63	29.6	1	4	248	0.00	29.646 
02:20	41.3	41.3	41.3	63	29.7	0	3	248	0.00	29.646 
02:25	41.2	41.2	41.2	64	30.0	0	2	248	0.00	29.646 
02:30	41.2	41.2	41.2	64	30.0	0	3	248	0.00	29.644 
02:35	41.2	41.2	41.2	64	30.0	0	2	248	0.00	29.644 
02:40	41.2	41.2	41.2	64	30.0	0	2	248	0.00	29.644 
02:45	41.2	41.2	41.2	64	30.0	1	3	248	0.01	29.640 
02:50	41.1	41.1	41.1	65	30.2	0	2	248	0.00	29.640 
02:55	40.9	40.9	40.9	65	30.1	0	3	248	0.00	29.640 
03:00	40.9	40.9	40.9	65	30.1	0	2	248	0.00	29.632 
03:05	40.6	40.6	40.6	66	30.1	0	3	248	0.00	29.632 
03:10	40.6	40.6	40.6	66	30.1	0	4	248	0.00	29.632 
03:15	40.5	40.5	40.5	67	30.4	0	2	248	0.00	29.629 
03:20	40.3	40.3	40.3	67	30.2	0	4	248	0.00	29.629 
03:25	40.2	40.2	40.2	67	30.1	0	2	248	0.00	29.629 
03:30	40.2	40.2	40.2	67	30.1	1	4	248	0.00	29.626 
03:35	40.1	40.1	40.1	68	30.4	0	3	248	0.00	29.626 
03:40	39.9	39.9	39.9	68	30.2	0	3	248	0.00	29.626 
03:45	39.9	39.9	39.9	69	30.6	0	2	248	0.00	29.622 
03:50	39.8	39.8	39.8	69	30.5	0	1	248	0.00	29.622 
03:55	39.5	39.5	39.5	69	30.2	0	3	248	0.00	29.622 
04:00	39.3	39.3	39.3	70	30.3	0	2	248	0.00	29.618 
04:05	39.3	39.3	39.3	70	30.3	0	3	248	0.00	29.618 
04:10	39.3	39.3	39.3	71	30.7	1	3	248	0.00	29.618 
04:15	39.2	39.2	39.2	71	30.6	0	2	248	0.01	29.614 
04:20	39.2	39.2	39.2	71	30.6	0	4	248	0.00	29.614 
04:25	39.1	39.1	39.1	72	30.8	1	2	248	0.00	29.614 
04:30	39.1	39.1	39.1	73	31.2	1	4	248	0.00	29.613 
04:35	39.1	39.1	39.1	73	31.2	0	3	248	0.00	29.613 
04:40	39.1	39.1	39.1	73	31.2	1	2	248	0.00	29.613 
04:45	38.9	38.9	38.9	73	31.0	0	2	248	0.00	29.612 
04:50	38.9	38.9	38.9	74	31.3	0	2	248	0.00	29.612 
04:55	38.9	38.9	38.9	74	31.3	1	3	248	0.00	29.612 
05:00	38.9	38.9	38.9	74	31.3	1	4	248	0.00	29.613 
05:05	38.9	38.9	38.9	75	31.7	1	5	248	0.00	29.613 
05:10	38.8	38.8	38.8	75	31.6	0	2	248	0.00	29.613 
05:15	38.8	38.8	38.8	75	31.6	1	3	248	0.00	29.617 
05:20	38.8	38.8	38.8	75	31.6	0	2	248	0.00	29.617 
05:25	38.6	38.6	38.6	75	31.4	0	1	248	0.00	29.617 
05:30	38.5	38.5	38.5	76	31.6	0	2	248	0.00	29.613 
05:35	38.3	38.3	38.3	76	31.4	0	2	248	0.00	29.613 
05:40	38.3	38.3	38.3	77	31.7	0	2	248	0.00	29.613 
05:45	38.3	38.3	38.3	77	31.7	1	3	248	0.00	29.623 
05:50	38.2	38.2	38.2	77	31.6	0	2	248	0.00	29.623 
05:55	38.2	38.2	38.2	77	31.6	0	2	248	0.00	29.623 
06:00	38.0	38.0	38.0	77	31.4	0	3	248	0.00	29.626 
06:05	37.9	37.9	37.9	77	31.3	0	2	248	0.00	29.626 
06:10	37.8	37.8	37.8	78	31.6	0	2	248	0.00	29.626 
06:15	37.6	37.6	37.6	78	31.4	0	2	248	0.00	29.632 
06:20	37.5	37.5	37.5	78	31.3	0	2	248	0.00	29.632 
06:25	37.3	37.3	37.3	78	31.1	0	1	248	0.00	29.632 
06:30	37.2	37.2	37.2	79	31.3	0	2	248	0.00	29.640 
06:35	37.2	37.2	37.2	79	31.3	1	3	248	0.00	29.640 
06:40	37.0	37.0	37.0	79	31.1	1	3	248	0.00	29.640 
06:45	37.0	37.0	37.0	79	31.1	1	3	248	0.00	29.650 
06:50	36.9	36.9	36.9	79	31.0	1	3	248	0.00	29.650 
06:55	36.8	36.8	36.8	79	30.9	1	3	248	0.00	29.650 
07:00	36.8	36.8	36.8	79	30.9	1	3	248	0.00	29.662 
07:05	36.6	36.6	36.6	79	30.7	1	3	248	0.00	29.662 
07:10	36.5	36.5	36.5	79	30.6	1	3	248	0.00	29.662 
07:15	36.2	36.2	36.2	79	30.3	1	4	248	0.00	29.672 
07:20	36.0	36.0	36.0	79	30.1	1	3	248	0.00	29.672 
07:25	35.9	35.9	35.9	79	30.0	2	3	248	0.00	29.672 
07:30	35.8	35.8	35.8	79	29.9	1	4	248	0.00	29.685 
07:35	35.8	35.8	35.8	79	29.9	2	4	248	0.00	29.685 
07:40	35.6	35.6	35.6	79	29.7	2	4	248	0.00	29.685 
07:45	35.6	35.6	35.6	78	29.4	3	5	270	0.00	29.698 
07:50	35.5	35.5	35.5	78	29.3	3	5	270	0.00	29.698 
07:55	35.5	35.5	35.5	78	29.3	2	6	270	0.00	29.698 
08:00	35.3	35.3	35.3	77	28.8	2	6	270	0.00	29.698 
08:05	35.3	35.3	35.3	77	28.8	2	6	270	0.00	29.698 
08:10	35.3	35.3	35.3	77	28.8	2	6	270	0.00	29.698 
08:15	35.3	35.3	35.3	77	28.8	3	6	270	0.00	29.734 
08:20	35.3	35.3	35.3	77	28.8	3	6	270	0.00	29.734 
08:25	35.3	35.3	35.3	76	28.5	3	7	270	0.01	29.734 
08:30	35.5	35.5	35.5	76	28.7	2	6	270	0.00	29.741 
08:35	35.6	35.6	35.6	75	28.5	2	5	292	0.00	29.741 
08:40	35.9	35.9	35.9	75	28.8	1	4	315	0.00	29.741 
08:45	36.0	36.0	36.0	74	28.5	2	5	315	0.00	29.748 
08:50	35.9	35.9	35.9	73	28.1	2	6	270	0.00	29.748 
08:55	35.8	35.8	35.8	73	28.0	2	5	270	0.00	29.748 
09:00	35.6	35.6	35.6	73	27.8	3	5	270	0.00	29.767 
09:05	35.8	35.8	35.8	74	28.3	2	4	270	0.00	29.767 
09:10	35.9	35.9	35.9	73	28.1	2	6	270	0.00	29.767 
09:15	36.2	36.2	36.2	72	28.1	3	7	270	0.00	29.778 
09:20	36.5	36.5	36.5	72	28.3	3	7	292	0.00	29.778 
09:25	36.5	36.5	36.5	71	28.0	3	7	270	0.00	29.778 
09:30	36.6	36.6	36.6	71	28.1	3	7	270	0.00	29.794 
09:35	36.6	36.6	36.6	70	27.8	3	7	270	0.00	29.794 
09:40	36.8	33.6	36.8	70	27.9	4	11	270	0.00	29.794 
09:45	36.9	36.9	36.9	70	28.0	3	7	292	0.00	29.806 
09:50	36.9	33.7	36.9	69	27.7	4	11	315	0.01	29.806 
09:55	37.0	33.9	37.0	69	27.8	4	9	315	0.00	29.806 
10:00	37.2	37.2	37.2	68	27.6	3	7	292	0.00	29.815 
10:05	37.3	37.3	37.3	68	27.7	3	6	270	0.00	29.815 
10:10	37.3	37.3	37.3	68	27.7	3	11	270	0.00	29.815 
10:15	37.6	37.6	37.6	68	28.0	2	5	270	0.00	29.822 
10:20	37.9	37.9	37.9	67	27.9	2	6	270	0.00	29.822 
10:25	38.0	38.0	38.0	67	28.0	3	4	270	0.01	29.822 
10:30	38.2	35.2	38.2	68	28.6	4	10	315	0.00	29.836 
10:35	38.3	35.4	38.3	69	29.0	4	7	270	0.00	29.836 
10:40	38.5	38.5	38.5	69	29.2	3	7	270	0.00	29.836 
10:45	38.6	38.6	38.6	69	29.3	3	7	315	0.00	29.841 
10:50	38.8	35.9	38.8	70	29.9	4	10	292	0.00	29.841 
10:55	38.9	36.0	38.9	70	30.0	4	9	270	0.01	29.841 
11:00	38.9	38.9	38.9	70	30.0	3	10	270	0.00	29.856 
11:05	39.2	39.2	39.2	70	30.3	3	10	315	0.00	29.856 
11:10	39.3	39.3	39.3	70	30.3	3	5	338	0.00	29.856 
11:15	39.6	39.6	39.6	69	30.3	2	5	270	0.01	29.862 
11:20	39.5	39.5	39.5	70	30.5	3	9	315	0.00	29.862 
11:25	39.5	39.5	39.5	71	30.9	2	5	315	0.00	29.862 
11:30	39.5	39.5	39.5	71	30.9	3	6	292	0.00	29.866 
11:35	39.3	39.3	39.3	72	31.0	3	6	270	0.00	29.866 
11:40	39.2	39.2	39.2	72	30.9	3	6	270	0.00	29.866 
11:45	39.2	36.4	39.2	72	30.9	4	8	248	0.01	29.877 
11:50	39.3	39.3	39.3	72	31.0	3	9	270	0.00	29.877 
11:55	39.5	39.5	39.5	72	31.2	2	6	315	0.00	29.877 
12:00	39.6	39.6	39.6	71	31.0	3	6	270	0.00	29.882 
12:05	39.6	39.6	39.6	71	31.0	3	7	270	0.00	29.882 
12:10	39.9	39.9	39.9	71	31.3	2	4	248	0.01	29.882 
12:15	40.2	40.2	40.2	70	31.2	2	4	248	0.00	29.883 
12:20	39.9	39.9	39.9	71	31.3	3	7	270	0.00	29.883 
12:25	39.9	39.9	39.9	71	31.3	3	7	270	0.00	29.883 
12:30	39.9	39.9	39.9	71	31.3	2	5	270	0.00	29.896 
12:35	40.1	40.1	40.1	71	31.5	2	5	248	0.00	29.896 
12:40	40.3	40.3	40.3	70	31.3	2	4	270	0.00	29.896 
12:45	40.2	40.2	40.2	70	31.2	3	5	248	0.00	29.899 
12:50	40.3	40.3	40.3	71	31.7	2	3	270	0.01	29.899 
12:55	40.5	40.5	40.5	70	31.5	2	4	248	0.00	29.899 
13:00	40.6	40.6	40.6	70	31.6	2	4	292	0.00	29.908 
13:05	40.8	40.8	40.8	70	31.8	2	5	270	0.00	29.908 
13:10	40.6	40.6	40.6	69	31.2	2	5	270	0.00	29.908 
13:15	40.5	40.5	40.5	69	31.1	2	5	248	0.00	29.915 
13:20	40.3	40.3	40.3	70	31.3	2	4	248	0.00	29.915 
13:25	40.3	40.3	40.3	71	31.7	2	4	248	0.00	29.915 
13:30	40.5	40.5	40.5	70	31.5	2	5	270	0.00	29.920 
13:35	40.5	40.5	40.5	70	31.5	2	5	270	0.01	29.920 
13:40	40.6	40.6	40.6	69	31.2	2	4	248	0.00	29.920 
13:45	40.6	40.6	40.6	69	31.2	3	9	270	0.00	29.921 
13:50	40.8	40.8	40.8	68	31.1	2	4	270	0.00	29.921 
13:55	41.1	41.1	41.1	68	31.4	2	4	248	0.00	29.921 
14:00	41.2	41.2	41.2	68	31.5	2	4	270	0.00	29.927 
14:05	41.3	41.3	41.3	68	31.5	1	4	248	0.00	29.927 
14:10	41.6	41.6	41.6	67	31.5	1	3	248	0.00	29.927 
14:15	41.6	41.6	41.6	67	31.5	2	4	292	0.00	29.941 
14:20	41.8	41.8	41.8	67	31.7	2	4	248	0.00	29.941 
14:25	41.8	41.8	41.8	66	31.3	1	3	248	0.00	29.941 
14:30	41.9	41.9	41.9	66	31.4	1	4	248	0.00	29.942 
14:35	42.2	42.2	42.2	66	31.7	1	3	270	0.00	29.942 
14:40	42.3	42.3	42.3	64	31.0	2	4	270	0.00	29.942 
14:45	42.3	42.3	42.3	65	31.4	1	3	270	0.00	29.943 
14:50	42.3	42.3	42.3	65	31.4	1	3	248	0.00	29.943 
14:55	42.3	42.3	42.3	64	31.0	2	4	270	0.00	29.943 
15:00	42.3	42.3	42.3	63	30.6	2	4	248	0.00	29.946 
15:05	42.5	42.5	42.5	63	30.8	1	3	292	0.00	29.946 
15:10	42.8	42.8	42.8	63	31.1	1	2	292	0.00	29.946 
15:15	42.9	42.9	42.9	62	30.8	1	3	315	0.00	29.957 
15:20	43.3	43.3	43.3	60	30.4	1	3	248	0.00	29.957 
15:25	43.3	43.3	43.3	60	30.4	1	2	270	0.00	29.957 
15:30	43.6	43.6	43.6	59	30.2	1	3	270	0.00	29.959 
15:35	43.8	43.8	43.8	58	30.0	1	3	270	0.01	29.959 
15:40	43.8	43.8	43.8	58	30.0	2	4	270	0.00	29.959 
15:45	43.8	43.8	43.8	59	30.4	1	3	270	0.00	29.968 
15:50	43.5	43.5	43.5	58	29.7	1	4	248	0.00	29.968 
15:55	43.3	43.3	43.3	60	30.4	1	3	248	0.00	29.968 
16:00	43.1	43.1	43.1	59	29.8	2	4	270	0.00	29.979 
16:05	43.1	43.1	43.1	59	29.8	0	2	270	0.00	29.979 
16:10	43.1	43.1	43.1	59	29.8	1	4	292	0.00	29.979 
16:15	43.1	43.1	43.1	59	29.8	1	3	270	0.00	29.989 
16:20	43.1	43.1	43.1	59	29.8	1	5	270	0.00	29.989 
16:25	43.1	43.1	43.1	59	29.8	1	4	248	0.00	29.989 
16:30	42.9	42.9	42.9	59	29.6	1	5	248	0.00	30.001 
16:35	42.9	42.9	42.9	59	29.6	1	3	248	0.00	30.001 
16:40	42.8	42.8	42.8	59	29.5	1	3	248	0.00	30.001 
16:45	42.8	42.8	42.8	60	29.9	1	4	248	0.00	30.013 
16:50	42.6	42.6	42.6	60	29.7	1	4	248	0.00	30.013 
16:55	42.3	42.3	42.3	61	29.8	1	3	248	0.00	30.013 
17:00	42.1	42.1	42.1	61	29.6	1	4	248	0.00	30.025 
17:05	41.9	41.9	41.9	61	29.4	1	3	270	0.00	30.025 
17:10	41.9	41.9	41.9	61	29.4	1	4	270	0.00	30.025 
17:15	41.9	41.9	41.9	60	29.0	1	4	270	0.00	30.031 
17:20	41.8	41.8	41.8	60	28.9	1	3	248	0.00	30.031 
17:25	41.6	41.6	41.6	61	29.2	0	2	248	0.00	30.031 
17:30	41.5	41.5	41.5	63	29.9	1	4	248	0.00	30.039 
17:35	41.2	41.2	41.2	64	30.0	1	2	248	0.00	30.039 
17:40	40.9	40.9	40.9	65	30.1	1	3	248	0.00	30.039 
17:45	40.6	40.6	40.6	65	29.8	1	3	248	0.00	30.043 
17:50	40.5	40.5	40.5	66	30.0	0	2	248	0.00	30.043 
17:55	40.2	40.2	40.2	67	30.1	0	1	248	0.00	30.043 
18:00	39.9	39.9	39.9	68	30.2	0	1	248	0.00	30.044 
18:05	39.6	39.6	39.6	68	29.9	0	0	---	0.00	30.044 
18:10	39.3	39.3	39.3	69	30.0	0	0	---	0.00	30.044 
18:15	38.9	38.9	38.9	70	30.0	0	0	---	0.00	30.050 
18:20	38.6	38.6	38.6	71	30.0	0	0	---	0.00	30.050 
18:25	38.3	38.3	38.3	71	29.7	0	1	248	0.00	30.050 
18:30	38.2	38.2	38.2	72	30.0	0	2	248	0.00	30.061 
18:35	38.2	38.2	38.2	71	29.6	0	2	248	0.00	30.061 
18:40	38.0	38.0	38.0	71	29.4	0	1	248	0.00	30.061 
18:45	37.9	37.9	37.9	70	29.0	0	1	248	0.00	30.060 
18:50	37.8	37.8	37.8	70	28.9	0	1	248	0.00	30.060 
18:55	37.5	37.5	37.5	70	28.6	0	0	---	0.00	30.060 
19:00	37.2	37.2	37.2	70	28.3	0	0	---	0.00	30.060 
19:05	36.8	36.8	36.8	71	28.3	0	0	---	0.00	30.060 
19:10	36.2	36.2	36.2	71	27.7	0	0	---	0.00	30.060 
19:15	35.6	35.6	35.6	73	27.8	0	0	---	0.00	30.064 
19:20	35.0	35.0	35.0	74	27.6	0	0	---	0.00	30.064 
19:25	34.6	34.6	34.6	74	27.2	0	0	---	0.00	30.064 
19:30	34.0	34.0	34.0	76	27.2	0	0	---	0.00	30.067 
19:35	33.5	33.5	33.5	77	27.1	0	0	---	0.00	30.067 
19:40	33.2	33.2	33.2	79	27.4	0	0	---	0.00	30.067 
19:45	32.8	32.8	32.8	80	27.3	0	0	---	0.00	30.066 
19:50	32.7	32.7	32.7	81	27.5	0	0	---	0.00	30.066 
19:55	32.5	32.5	32.5	82	27.6	0	0	---	0.00	30.066 
20:00	32.4	32.4	32.4	82	27.5	0	0	---	0.00	30.060 
20:05	32.2	32.2	32.2	82	27.3	0	0	---	0.00	30.060 
20:10	32.1	32.1	32.1	84	27.8	0	0	---	0.00	30.060 
20:15	32.2	32.2	32.2	84	27.9	0	0	---	0.00	30.058 
20:20	32.1	32.1	32.1	84	27.8	0	0	---	0.00	30.058 
20:25	32.1	32.1	32.1	84	27.8	0	1	248	0.00	30.058 
20:30	31.9	31.9	31.9	84	27.6	0	0	---	0.00	30.050 
20:35	31.9	31.9	31.9	85	27.9	0	0	---	0.00	30.050 
20:40	31.9	31.9	31.9	85	27.9	0	1	248	0.00	30.050 
20:45	31.9	31.9	31.9	85	27.9	0	0	---	0.00	30.045 
20:50	31.9	31.9	31.9	85	27.9	0	0	---	0.00	30.045 
20:55	31.6	31.6	31.6	85	27.6	0	0	---	0.00	30.045 
21:00	31.2	31.2	31.2	85	27.2	0	0	---	0.00	30.038 
21:05	30.7	30.7	30.7	85	26.7	0	0	---	0.00	30.038 
21:10	30.4	30.4	30.4	86	26.7	0	0	---	0.00	30.038 
21:15	30.0	30.0	30.0	86	26.3	0	0	---	0.00	30.032 
21:20	29.5	29.5	29.5	86	25.8	0	0	---	0.00	30.032 
21:25	29.3	29.3	29.3	87	25.9	0	0	---	0.00	30.032 
21:30	29.0	29.0	29.0	87	25.6	0	0	---	0.00	30.031 
21:35	28.7	28.7	28.7	87	25.3	0	0	---	0.00	30.031 
21:40	28.5	28.5	28.5	87	25.1	0	0	---	0.00	30.031 
21:45	28.4	28.4	28.4	88	25.3	0	0	---	0.00	30.029 
21:50	28.2	28.2	28.2	88	25.1	0	0	---	0.00	30.029 
21:55	28.1	28.1	28.1	88	25.0	0	0	---	0.00	30.029 
22:00	27.9	27.9	27.9	88	24.8	0	0	---	0.00	30.033 
22:05	27.8	27.8	27.8	88	24.7	0	0	---	0.00	30.033 
22:10	27.8	27.8	27.8	89	25.0	0	0	---	0.00	30.033 
22:15	27.8	27.8	27.8	89	25.0	0	0	---	0.00	30.037 
22:20	27.9	27.9	27.9	89	25.1	0	0	---	0.00	30.037 
22:25	27.8	27.8	27.8	89	25.0	0	0	---	0.00	30.037 
22:30	27.8	27.8	27.8	89	25.0	0	0	---	0.00	30.048 
22:35	27.6	27.6	27.6	89	24.8	0	0	---	0.00	30.048 
22:40	27.6	27.6	27.6	89	24.8	0	0	---	0.00	30.048 
22:45	27.5	27.5	27.5	90	25.0	0	0	---	0.00	30.051 
22:50	27.5	27.5	27.5	90	25.0	0	0	---	0.00	30.051 
22:55	27.5	27.5	27.5	90	25.0	0	0	---	0.00	30.051 
23:00	27.5	27.5	27.5	90	25.0	0	0	---	0.00	30.050 
23:05	27.6	27.6	27.6	91	25.3	0	0	---	0.00	30.050 
23:10	27.6	27.6	27.6	91	25.3	0	0	---	0.00	30.050 
23:15	27.8	27.8	27.8	91	25.5	0	0	---	0.00	30.045 
23:20	27.9	27.9	27.9	91	25.6	0	0	---	0.00	30.045 
23:25	28.1	28.1	28.1	91	25.8	0	0	---	0.00	30.045 
23:30	28.2	28.2	28.2	91	25.9	0	0	---	0.00	30.045 
23:35	28.2	28.2	28.2	91	25.9	0	0	---	0.00	30.045 
23:40	28.2	28.2	28.2	91	25.9	0	0	---	0.00	30.045 
23:45	28.1	28.1	28.1	91	25.8	0	0	---	0.00	30.051 
23:50	28.1	28.1	28.1	91	25.8	0	0	---	0.00	30.051 
23:55	28.1	28.1	28.1	92	26.1	0	0	---	0.00	30.051 

CoCoRaHS
IN-AL-39
A2 Web Hosting
Creative Commons License
GoDaddy
search engine by freefind advanced

loaded 2018-11-15 19:02:34 • last modified 2010-11-18 10:43:29
Privacy PolicyDisclaimer
• wx.awcolley.com is powered by PmWiki v.2002016 •
• all content (unless otherwise noted) © 2018 A W Colley